Time;durP1;ratioP1;P1;durP2;ratioP2;P2;SDS_P1;SDS_P2;PMS_P1;PMS_P2;Temp;Humidity;BMP_temperature;BMP_pressure;BME280_temperature;BME280_humidity;BME280_pressure;Samples;Min_cycle;Max_cycle;Signal;HPM_P1;HPM_P2
2022/11/26 00:00:52;;;;;;;0.40;0.30;;;6.40;99.90;;;;;;5137436;27;20476;-78
2022/11/26 00:03:19;;;;;;;0.77;0.77;;;6.40;99.90;;;;;;5137407;27;20813;-78
2022/11/26 00:05:49;;;;;;;0.40;0.40;;;6.40;99.90;;;;;;5136854;27;20851;-78
2022/11/26 00:08:20;;;;;;;6.23;0.67;;;6.30;99.90;;;;;;5135610;27;20454;-78
2022/11/26 00:10:49;;;;;;;0.57;0.57;;;6.30;99.90;;;;;;5137278;27;20427;-78
2022/11/26 00:13:20;;;;;;;0.30;0.30;;;6.30;99.90;;;;;;5137162;27;20443;-78
2022/11/26 00:15:47;;;;;;;1.67;0.37;;;6.30;99.90;;;;;;5136783;27;20973;-78
2022/11/26 00:18:14;;;;;;;0.30;0.30;;;6.20;99.90;;;;;;5137044;27;20522;-78
2022/11/26 00:20:42;;;;;;;0.40;0.40;;;6.20;99.90;;;;;;5136627;27;20478;-78
2022/11/26 00:23:15;;;;;;;0.40;0.30;;;6.20;99.90;;;;;;5136704;27;20446;-78
2022/11/26 00:25:44;;;;;;;0.30;0.30;;;6.20;99.90;;;;;;5136555;27;20969;-78
2022/11/26 00:28:25;;;;;;;0.30;0.30;;;6.20;99.90;;;;;;5136900;27;20463;-78
2022/11/26 00:30:54;;;;;;;0.40;0.30;;;6.20;99.90;;;;;;5136909;27;20431;-78
2022/11/26 00:33:21;;;;;;;0.40;0.30;;;6.20;99.90;;;;;;5136824;27;20537;-78
2022/11/26 00:35:49;;;;;;;0.33;0.27;;;6.30;99.90;;;;;;5136699;27;20468;-78
2022/11/26 00:38:19;;;;;;;0.30;0.30;;;6.20;99.90;;;;;;5137546;27;20442;-78
2022/11/26 00:40:46;;;;;;;0.50;0.40;;;6.20;99.90;;;;;;5136338;27;20966;-77
2022/11/26 00:43:15;;;;;;;0.40;0.40;;;6.20;99.90;;;;;;5136309;27;20447;-78
2022/11/26 00:45:46;;;;;;;0.40;0.40;;;6.20;99.90;;;;;;5136424;27;20483;-78
2022/11/26 00:48:13;;;;;;;0.30;0.30;;;6.30;99.90;;;;;;5136308;27;20521;-78
2022/11/26 00:50:43;;;;;;;0.40;0.30;;;6.30;99.90;;;;;;5136487;27;20448;-78
2022/11/26 00:53:13;;;;;;;0.30;0.30;;;6.30;99.90;;;;;;5136135;27;20949;-77
2022/11/26 00:55:43;;;;;;;0.30;0.30;;;6.40;99.90;;;;;;5136593;27;20831;-78
2022/11/26 00:58:20;;;;;;;0.40;0.30;;;6.40;99.90;;;;;;5136644;27;20435;-78
2022/11/26 01:00:48;;;;;;;2.40;0.67;;;6.40;99.90;;;;;;5136015;27;20522;-78
2022/11/26 01:03:15;;;;;;;0.30;0.30;;;6.40;99.90;;;;;;5135961;27;20443;-78
2022/11/26 01:05:43;;;;;;;0.40;0.40;;;6.40;99.90;;;;;;5135735;27;20984;-78
2022/11/26 01:08:19;;;;;;;0.30;0.30;;;6.50;99.90;;;;;;5135817;27;20816;-78
2022/11/26 01:10:46;;;;;;;0.40;0.37;;;6.50;99.90;;;;;;5136085;27;20495;-78
2022/11/26 01:13:12;;;;;;;0.40;0.40;;;6.40;99.90;;;;;;5136080;27;20469;-78
2022/11/26 01:15:40;;;;;;;0.83;0.83;;;6.50;99.90;;;;;;5135893;27;20454;-78
2022/11/26 01:18:12;;;;;;;0.40;0.40;;;6.50;99.90;;;;;;5135957;27;20453;-78
2022/11/26 01:20:40;;;;;;;0.97;0.83;;;6.50;99.90;;;;;;5135044;27;20475;-77
2022/11/26 01:23:09;;;;;;;0.40;0.40;;;6.50;99.90;;;;;;5135801;27;20438;-77
2022/11/26 01:25:36;;;;;;;0.50;0.40;;;6.40;99.90;;;;;;5135326;27;20475;-77
2022/11/26 01:28:03;;;;;;;0.87;0.40;;;6.40;99.90;;;;;;5135417;27;20968;-77
2022/11/26 01:30:32;;;;;;;0.50;0.30;;;6.40;99.90;;;;;;5135382;27;20451;-77
2022/11/26 01:32:59;;;;;;;1.37;0.60;;;6.40;99.90;;;;;;5135323;27;20447;-77
2022/11/26 01:35:28;;;;;;;0.50;0.40;;;6.40;99.90;;;;;;5135481;27;20490;-77
2022/11/26 01:37:56;;;;;;;0.50;0.43;;;6.30;99.90;;;;;;5135194;27;20961;-77
2022/11/26 01:40:32;;;;;;;0.30;0.30;;;6.30;99.90;;;;;;5135455;27;20443;-77
2022/11/26 01:43:03;;;;;;;0.40;0.30;;;6.20;99.90;;;;;;5135440;27;20435;-77
2022/11/26 01:45:30;;;;;;;0.50;0.50;;;6.20;99.90;;;;;;5135327;27;20489;-77
2022/11/26 01:47:57;;;;;;;0.70;0.40;;;6.20;99.90;;;;;;5135313;27;20470;-78
2022/11/26 01:50:48;;;;;;;0.50;0.50;;;6.10;99.90;;;;;;5135302;27;20473;-77
2022/11/26 01:53:23;;;;;;;0.30;0.30;;;6.10;99.90;;;;;;5135325;27;20431;-78
2022/11/26 01:55:54;;;;;;;0.80;0.80;;;6.00;99.90;;;;;;5135159;27;20459;-77
2022/11/26 01:58:26;;;;;;;0.43;0.43;;;6.00;99.90;;;;;;5134839;27;20450;-77
2022/11/26 02:00:53;;;;;;;0.30;0.30;;;5.90;99.90;;;;;;5134821;27;20439;-77
2022/11/26 02:03:20;;;;;;;0.30;0.30;;;5.90;99.90;;;;;;5135052;27;20479;-77
2022/11/26 02:05:56;;;;;;;0.30;0.30;;;5.90;99.90;;;;;;5134681;27;20479;-77
2022/11/26 02:08:24;;;;;;;0.73;0.73;;;5.80;99.90;;;;;;5134996;27;20526;-77
2022/11/26 02:10:52;;;;;;;0.40;0.40;;;5.80;99.90;;;;;;5135768;27;20443;-77
2022/11/26 02:13:19;;;;;;;0.40;0.40;;;5.70;99.90;;;;;;5134877;27;20450;-77
2022/11/26 02:15:53;;;;;;;0.30;0.30;;;5.70;99.90;;;;;;5134762;27;20576;-77
2022/11/26 02:18:21;;;;;;;0.30;0.20;;;5.70;99.90;;;;;;5134878;27;20423;-77
2022/11/26 02:20:58;;;;;;;0.47;0.33;;;5.70;99.90;;;;;;5134296;27;20470;-77
2022/11/26 02:23:52;;;;;;;0.60;0.60;;;5.70;99.90;;;;;;5134809;27;20433;-77
2022/11/26 02:26:41;;;;;;;0.33;0.30;;;5.60;99.90;;;;;;5134313;27;21001;-78
2022/11/26 02:29:17;;;;;;;0.60;0.60;;;5.60;99.90;;;;;;5134367;27;20514;-78
2022/11/26 02:31:48;;;;;;;0.50;0.50;;;5.60;99.90;;;;;;5133885;27;20433;-77
2022/11/26 02:34:22;;;;;;;0.30;0.30;;;5.60;99.90;;;;;;5135127;27;20858;-78
2022/11/26 02:36:53;;;;;;;0.40;0.40;;;5.50;99.90;;;;;;5134277;27;20895;-78
2022/11/26 02:39:22;;;;;;;0.37;0.37;;;5.50;99.90;;;;;;5134593;27;20427;-77
2022/11/26 02:41:52;;;;;;;0.30;0.30;;;5.50;99.90;;;;;;5134509;27;20447;-78
2022/11/26 02:44:22;;;;;;;2.00;0.40;;;5.50;99.90;;;;;;5134386;27;20473;-77
2022/11/26 02:46:56;;;;;;;0.30;0.30;;;5.50;99.90;;;;;;5134028;27;20886;-77
2022/11/26 02:49:23;;;;;;;0.50;0.50;;;5.60;99.90;;;;;;5134451;27;20433;-78
2022/11/26 02:51:54;;;;;;;0.50;0.40;;;5.50;99.90;;;;;;5134412;27;20465;-78
2022/11/26 02:54:24;;;;;;;0.40;0.30;;;5.60;99.90;;;;;;5134312;27;20458;-78
2022/11/26 02:56:52;;;;;;;1.43;0.57;;;5.60;99.90;;;;;;5134368;27;20439;-77
2022/11/26 02:59:20;;;;;;;0.30;0.30;;;5.60;99.90;;;;;;5134028;27;20443;-78
2022/11/26 03:01:55;;;;;;;0.30;0.20;;;5.60;99.90;;;;;;5134025;27;20892;-77
2022/11/26 03:04:26;;;;;;;0.40;0.40;;;5.60;99.90;;;;;;5133941;27;20885;-78
2022/11/26 03:06:56;;;;;;;1.37;0.50;;;5.70;99.90;;;;;;5134231;27;20549;-78
2022/11/26 03:09:23;;;;;;;0.87;0.87;;;5.80;99.90;;;;;;5133953;27;20446;-77
2022/11/26 03:11:50;;;;;;;0.60;0.40;;;5.80;99.90;;;;;;5134220;27;20447;-78
2022/11/26 03:14:17;;;;;;;0.50;0.40;;;5.80;99.90;;;;;;5133779;27;20467;-78
2022/11/26 03:16:44;;;;;;;0.40;0.40;;;5.90;99.90;;;;;;5134174;27;20442;-78
2022/11/26 03:19:12;;;;;;;0.40;0.40;;;5.80;99.90;;;;;;5133589;27;20478;-78
2022/11/26 03:21:38;;;;;;;0.30;0.30;;;5.80;99.90;;;;;;5134117;27;20468;-78
2022/11/26 03:24:06;;;;;;;0.70;0.60;;;5.80;99.90;;;;;;5134058;27;20462;-78
2022/11/26 03:26:32;;;;;;;0.30;0.30;;;5.80;99.90;;;;;;5133966;27;20482;-78
2022/11/26 03:28:59;;;;;;;0.40;0.30;;;5.70;99.90;;;;;;5134047;27;20442;-78
2022/11/26 03:31:26;;;;;;;0.93;0.43;;;5.70;99.90;;;;;;5134027;27;20537;-77
2022/11/26 03:33:53;;;;;;;0.70;0.50;;;5.70;99.90;;;;;;5133945;27;20467;-78
2022/11/26 03:36:21;;;;;;;0.40;0.40;;;5.70;99.90;;;;;;5133642;27;20438;-77
2022/11/26 03:38:48;;;;;;;0.30;0.30;;;5.60;99.90;;;;;;5133593;27;20963;-77
2022/11/26 03:41:14;;;;;;;0.70;0.70;;;5.60;99.90;;;;;;5133969;27;20443;-77
2022/11/26 03:43:41;;;;;;;0.30;0.30;;;5.60;99.90;;;;;;5137172;27;20442;-77
2022/11/26 03:46:08;;;;;;;0.30;0.30;;;5.60;99.90;;;;;;5137666;27;20479;-78
2022/11/26 03:48:35;;;;;;;2.87;0.60;;;5.50;99.90;;;;;;5137699;27;20446;-77
2022/11/26 03:51:01;;;;;;;0.40;0.40;;;5.50;99.90;;;;;;5137683;27;20444;-77
2022/11/26 03:53:29;;;;;;;0.30;0.30;;;5.40;99.90;;;;;;5137551;27;20446;-77
2022/11/26 03:55:56;;;;;;;1.03;0.50;;;5.40;99.90;;;;;;5137561;27;20430;-77
2022/11/26 03:58:23;;;;;;;0.40;0.40;;;5.50;99.90;;;;;;5138324;27;20454;-77
2022/11/26 04:00:50;;;;;;;0.30;0.30;;;5.50;99.90;;;;;;5137508;27;20457;-78
2022/11/26 04:03:17;;;;;;;0.33;0.30;;;5.50;99.90;;;;;;5137108;27;20447;-77
2022/11/26 04:05:43;;;;;;;0.40;0.37;;;5.50;99.90;;;;;;5136934;27;21004;-78
2022/11/26 04:08:10;;;;;;;0.40;0.30;;;5.60;99.90;;;;;;5137002;27;20898;-77
2022/11/26 04:10:38;;;;;;;0.30;0.30;;;5.60;99.90;;;;;;5137271;27;20449;-78
2022/11/26 04:13:05;;;;;;;0.40;0.40;;;5.60;99.90;;;;;;5137248;27;20446;-78
2022/11/26 04:15:32;;;;;;;0.40;0.33;;;5.70;99.90;;;;;;5136796;27;20473;-78
2022/11/26 04:17:59;;;;;;;0.40;0.30;;;5.70;99.90;;;;;;5137083;27;20451;-78
2022/11/26 04:20:25;;;;;;;0.30;0.30;;;5.60;99.90;;;;;;5136698;27;20485;-78
2022/11/26 04:22:52;;;;;;;1.27;0.77;;;5.60;99.90;;;;;;5136746;27;20945;-78
2022/11/26 04:25:19;;;;;;;0.50;0.40;;;5.60;99.90;;;;;;5136590;27;20977;-78
2022/11/26 04:27:47;;;;;;;0.30;0.30;;;5.60;99.90;;;;;;5136567;27;21031;-78
2022/11/26 04:30:15;;;;;;;0.40;0.40;;;5.60;99.90;;;;;;5136894;27;20474;-78
2022/11/26 04:32:42;;;;;;;0.40;0.40;;;5.70;99.90;;;;;;5136854;27;20453;-78
2022/11/26 04:35:09;;;;;;;0.50;0.50;;;5.70;99.90;;;;;;5136736;27;20465;-78
2022/11/26 04:37:36;;;;;;;0.30;0.30;;;5.70;99.90;;;;;;5136763;27;20430;-78
2022/11/26 04:40:03;;;;;;;0.77;0.53;;;5.70;99.90;;;;;;5136404;27;20447;-78
2022/11/26 04:42:30;;;;;;;0.30;0.30;;;5.60;99.90;;;;;;5136701;27;20457;-78
2022/11/26 04:44:58;;;;;;;0.40;0.40;;;5.60;99.90;;;;;;5136567;27;20470;-77
2022/11/26 04:47:25;;;;;;;0.40;0.40;;;5.60;99.90;;;;;;5136198;27;20475;-78
2022/11/26 04:49:52;;;;;;;0.40;0.40;;;5.50;99.90;;;;;;5136250;27;20454;-78
2022/11/26 04:52:18;;;;;;;0.30;0.30;;;5.40;99.90;;;;;;5136479;27;20442;-78
2022/11/26 04:54:45;;;;;;;0.40;0.40;;;5.30;99.90;;;;;;5135619;27;20459;-78
2022/11/26 04:57:12;;;;;;;0.30;0.30;;;5.30;99.90;;;;;;5136415;27;20439;-78
2022/11/26 04:59:39;;;;;;;1.83;0.77;;;5.20;99.90;;;;;;5136026;27;20984;-78
2022/11/26 05:02:07;;;;;;;0.60;0.40;;;5.20;99.90;;;;;;5137172;27;20436;-78
2022/11/26 05:04:34;;;;;;;0.43;0.43;;;5.10;99.90;;;;;;5136664;27;20462;-78
2022/11/26 05:07:00;;;;;;;0.30;0.23;;;5.10;99.90;;;;;;5136129;27;20479;-78
2022/11/26 05:09:27;;;;;;;0.30;0.30;;;5.10;99.90;;;;;;5136161;27;20439;-78
2022/11/26 05:11:54;;;;;;;0.40;0.40;;;5.00;99.90;;;;;;5135793;27;20446;-78
2022/11/26 05:14:21;;;;;;;0.40;0.40;;;5.00;99.90;;;;;;5135664;27;20969;-78
2022/11/26 05:16:47;;;;;;;3.60;0.90;;;5.00;99.90;;;;;;5135967;27;20456;-78
2022/11/26 05:19:16;;;;;;;0.30;0.30;;;4.90;99.90;;;;;;5135713;27;20467;-78
2022/11/26 05:21:42;;;;;;;0.40;0.40;;;4.90;99.90;;;;;;5135913;27;20446;-78
2022/11/26 05:24:09;;;;;;;0.40;0.30;;;4.90;99.90;;;;;;5135461;27;20975;-78
2022/11/26 05:26:36;;;;;;;0.37;0.33;;;4.80;99.90;;;;;;5135417;27;20847;-78
2022/11/26 05:29:03;;;;;;;0.30;0.30;;;4.80;99.90;;;;;;5135758;27;20449;-78
2022/11/26 05:31:30;;;;;;;0.50;0.33;;;4.80;99.90;;;;;;5135368;27;20960;-78
2022/11/26 05:33:57;;;;;;;1.27;0.50;;;4.70;99.90;;;;;;5135586;27;20468;-78
2022/11/26 05:36:25;;;;;;;0.50;0.50;;;4.70;99.90;;;;;;5135611;27;20441;-77
2022/11/26 05:38:51;;;;;;;5.13;1.03;;;4.70;99.90;;;;;;5135517;27;20452;-78
2022/11/26 05:41:18;;;;;;;0.30;0.30;;;4.70;99.90;;;;;;5135512;27;20470;-78
2022/11/26 05:43:45;;;;;;;1.00;0.30;;;4.70;99.90;;;;;;5135372;27;20442;-78
2022/11/26 05:46:16;;;;;;;0.83;0.40;;;4.60;99.90;;;;;;5135336;27;20847;-78
2022/11/26 05:48:43;;;;;;;0.40;0.30;;;4.60;99.90;;;;;;5135127;27;20781;-78
2022/11/26 05:51:09;;;;;;;0.60;0.60;;;4.60;99.90;;;;;;5135000;27;20938;-78
2022/11/26 05:53:38;;;;;;;0.70;0.40;;;4.60;99.90;;;;;;5135642;27;20453;-78
2022/11/26 05:56:05;;;;;;;0.90;0.40;;;4.60;99.90;;;;;;5135206;27;20475;-78
2022/11/26 05:58:32;;;;;;;0.50;0.40;;;4.50;99.90;;;;;;5134839;27;20949;-77
2022/11/26 06:00:59;;;;;;;0.40;0.40;;;4.50;99.90;;;;;;5135082;27;20445;-78
2022/11/26 06:03:26;;;;;;;5.03;0.50;;;4.50;99.90;;;;;;5135112;27;20449;-77
2022/11/26 06:05:53;;;;;;;0.50;0.50;;;4.50;99.90;;;;;;5134914;27;20462;-78
2022/11/26 06:08:19;;;;;;;0.40;0.40;;;4.40;99.90;;;;;;5134613;27;21005;-78
2022/11/26 06:10:47;;;;;;;0.73;0.43;;;4.40;99.90;;;;;;5134978;27;20807;-78
2022/11/26 06:13:14;;;;;;;1.47;0.50;;;4.40;99.90;;;;;;5134937;27;20443;-77
2022/11/26 06:15:41;;;;;;;0.70;0.57;;;4.40;99.90;;;;;;5134853;27;20503;-78
2022/11/26 06:18:08;;;;;;;0.40;0.40;;;4.30;99.90;;;;;;5134861;27;20462;-77
2022/11/26 06:20:34;;;;;;;0.47;0.47;;;4.30;99.90;;;;;;5134319;27;20841;-77
2022/11/26 06:23:01;;;;;;;0.73;0.73;;;4.30;99.90;;;;;;5134788;27;20446;-77
2022/11/26 06:25:28;;;;;;;0.40;0.40;;;4.30;99.90;;;;;;5134664;27;20474;-77
2022/11/26 06:27:57;;;;;;;0.47;0.47;;;4.30;99.90;;;;;;5134611;27;20481;-78
2022/11/26 06:30:24;;;;;;;1.60;0.63;;;4.30;99.90;;;;;;5134665;27;20449;-77
2022/11/26 06:32:50;;;;;;;0.30;0.30;;;4.30;99.90;;;;;;5134309;27;20952;-77
2022/11/26 06:35:17;;;;;;;0.50;0.50;;;4.30;99.90;;;;;;5134261;27;20462;-77
2022/11/26 06:37:44;;;;;;;0.73;0.73;;;4.30;99.90;;;;;;5134330;27;20443;-77
2022/11/26 06:40:17;;;;;;;0.47;0.40;;;4.30;99.90;;;;;;5134557;27;20449;-77
2022/11/26 06:42:48;;;;;;;2.20;0.53;;;4.30;99.90;;;;;;5134262;27;20914;-77
2022/11/26 06:45:16;;;;;;;1.03;0.70;;;4.30;99.90;;;;;;5134471;27;20462;-77
2022/11/26 06:47:43;;;;;;;0.70;0.70;;;4.30;99.90;;;;;;5134357;27;20479;-77
2022/11/26 06:50:10;;;;;;;0.80;0.50;;;4.40;99.90;;;;;;5134417;27;20447;-77
2022/11/26 06:52:37;;;;;;;0.40;0.30;;;4.30;99.90;;;;;;5134075;27;21000;-78
2022/11/26 06:55:04;;;;;;;1.33;0.50;;;4.40;99.90;;;;;;5133980;27;20466;-78
2022/11/26 06:57:31;;;;;;;0.60;0.50;;;4.30;99.90;;;;;;5134303;27;20443;-77
2022/11/26 06:59:58;;;;;;;0.50;0.40;;;4.30;99.90;;;;;;5134328;27;20439;-78
2022/11/26 07:02:26;;;;;;;0.57;0.50;;;4.30;99.90;;;;;;5134067;27;20462;-78
2022/11/26 07:04:53;;;;;;;0.40;0.30;;;4.30;99.90;;;;;;5133743;27;20471;-78
2022/11/26 07:07:20;;;;;;;0.70;0.60;;;4.30;99.90;;;;;;5133823;27;20475;-78
2022/11/26 07:09:47;;;;;;;0.53;0.53;;;4.30;99.90;;;;;;5134205;27;20446;-78
2022/11/26 07:12:13;;;;;;;0.70;0.30;;;4.30;99.90;;;;;;5133824;27;20447;-78
2022/11/26 07:14:40;;;;;;;0.70;0.70;;;4.20;99.90;;;;;;5133771;27;21004;-78
2022/11/26 07:17:07;;;;;;;0.60;0.60;;;4.20;99.90;;;;;;5134991;27;20807;-78
2022/11/26 07:19:35;;;;;;;0.70;0.30;;;4.20;99.90;;;;;;5137902;27;20481;-78
2022/11/26 07:22:02;;;;;;;1.27;0.67;;;4.20;99.90;;;;;;5137883;27;20941;-78
2022/11/26 07:24:29;;;;;;;0.30;0.30;;;4.30;99.90;;;;;;5138087;27;20470;-78
2022/11/26 07:26:56;;;;;;;0.30;0.30;;;4.30;99.90;;;;;;5138051;27;20483;-78
2022/11/26 07:29:22;;;;;;;0.30;0.30;;;4.30;99.90;;;;;;5138100;27;20439;-77
2022/11/26 07:31:49;;;;;;;0.50;0.50;;;4.30;99.90;;;;;;5138041;27;20482;-78
2022/11/26 07:34:16;;;;;;;0.37;0.37;;;4.40;99.90;;;;;;5137946;27;20466;-78
2022/11/26 07:36:44;;;;;;;0.40;0.40;;;4.40;99.90;;;;;;5137950;27;20446;-78
2022/11/26 07:39:11;;;;;;;0.80;0.80;;;4.50;99.90;;;;;;5137840;27;20817;-78
2022/11/26 07:41:39;;;;;;;0.30;0.30;;;4.50;99.90;;;;;;5137355;27;20466;-77
2022/11/26 07:44:05;;;;;;;0.63;0.60;;;4.50;99.90;;;;;;5136488;27;20481;-77
2022/11/26 07:46:32;;;;;;;0.30;0.27;;;4.60;99.90;;;;;;5137061;27;20528;-77
2022/11/26 07:48:59;;;;;;;0.40;0.30;;;4.60;99.90;;;;;;5137370;27;20446;-77
2022/11/26 07:51:27;;;;;;;0.30;0.30;;;4.70;99.90;;;;;;5136443;27;20434;-77
2022/11/26 07:53:57;;;;;;;0.33;0.30;;;4.60;99.90;;;;;;5137082;27;20467;-77
2022/11/26 07:56:24;;;;;;;0.43;0.43;;;4.60;99.90;;;;;;5137250;27;20457;-77
2022/11/26 07:58:51;;;;;;;0.60;0.50;;;4.60;99.90;;;;;;5137204;27;20445;-77
2022/11/26 08:01:20;;;;;;;0.30;0.30;;;4.70;99.90;;;;;;5137169;27;20964;-77
2022/11/26 08:03:49;;;;;;;2.13;0.70;;;4.70;99.90;;;;;;5137060;27;20953;-78
2022/11/26 08:06:18;;;;;;;0.50;0.50;;;4.70;99.90;;;;;;5137097;27;20925;-78
2022/11/26 08:08:44;;;;;;;0.40;0.37;;;4.80;99.90;;;;;;5137248;27;20474;-78
2022/11/26 08:11:18;;;;;;;0.60;0.60;;;4.90;99.90;;;;;;5137281;27;20438;-77
2022/11/26 08:13:45;;;;;;;0.47;0.47;;;5.10;99.90;;;;;;5136904;27;20895;-78
2022/11/26 08:16:13;;;;;;;0.80;0.50;;;5.30;99.90;;;;;;5137186;27;20446;-78
2022/11/26 08:18:39;;;;;;;0.40;0.30;;;5.50;99.90;;;;;;5136929;27;20841;-77
2022/11/26 08:21:07;;;;;;;0.83;0.50;;;5.60;99.90;;;;;;5137075;27;20466;-77
2022/11/26 08:23:34;;;;;;;0.47;0.47;;;5.60;99.90;;;;;;5136945;27;20443;-77
2022/11/26 08:26:06;;;;;;;0.37;0.37;;;5.60;99.90;;;;;;5137035;27;20529;-77
2022/11/26 08:28:34;;;;;;;0.30;0.27;;;5.60;99.90;;;;;;5135487;27;20455;-77
2022/11/26 08:31:02;;;;;;;0.50;0.50;;;5.60;99.90;;;;;;5136873;27;20469;-77
2022/11/26 08:33:29;;;;;;;3.13;0.70;;;5.70;99.90;;;;;;5136864;27;20801;-77
2022/11/26 08:35:56;;;;;;;0.40;0.40;;;5.60;99.90;;;;;;5136531;27;20442;-77
2022/11/26 08:38:23;;;;;;;0.60;0.60;;;5.80;99.90;;;;;;5136738;27;20818;-77
2022/11/26 08:40:51;;;;;;;0.33;0.30;;;5.80;99.90;;;;;;5136513;27;20442;-77
2022/11/26 08:43:18;;;;;;;0.53;0.30;;;5.90;99.90;;;;;;5136708;27;20469;-77
2022/11/26 08:45:52;;;;;;;0.60;0.43;;;5.90;99.90;;;;;;5136285;27;20970;-77
2022/11/26 08:48:18;;;;;;;0.40;0.40;;;6.10;99.90;;;;;;5136579;27;20477;-77
2022/11/26 08:50:45;;;;;;;0.30;0.30;;;6.40;99.90;;;;;;5136577;27;20918;-77
2022/11/26 08:53:12;;;;;;;0.40;0.33;;;6.90;99.90;;;;;;5136188;27;20968;-77
2022/11/26 08:55:39;;;;;;;1.17;0.67;;;7.30;99.90;;;;;;5136356;27;20477;-77
2022/11/26 08:58:05;;;;;;;2.10;0.87;;;7.40;99.90;;;;;;5136360;27;20525;-78
2022/11/26 09:00:32;;;;;;;1.73;1.63;;;7.90;99.90;;;;;;5136375;27;20450;-78
2022/11/26 09:03:00;;;;;;;0.50;0.50;;;9.30;99.90;;;;;;5135973;27;20852;-78
2022/11/26 09:05:27;;;;;;;0.83;0.50;;;11.10;99.90;;;;;;5136150;27;20471;-78
2022/11/26 09:07:54;;;;;;;0.60;0.60;;;12.90;99.90;;;;;;5135996;27;20441;-78
2022/11/26 09:10:21;;;;;;;0.90;0.40;;;14.40;99.90;;;;;;5136214;27;20782;-78
2022/11/26 09:12:48;;;;;;;0.40;0.40;;;15.60;99.90;;;;;;5136125;27;20454;-78
2022/11/26 09:15:14;;;;;;;0.67;0.47;;;16.20;99.90;;;;;;5136003;27;20851;-78
2022/11/26 09:17:41;;;;;;;1.73;1.50;;;16.50;99.90;;;;;;5135668;27;20450;-78
2022/11/26 09:20:11;;;;;;;0.97;0.60;;;16.50;99.90;;;;;;5135410;27;20516;-78
2022/11/26 09:22:38;;;;;;;0.50;0.50;;;16.30;99.90;;;;;;5135574;27;20538;-79
2022/11/26 09:25:05;;;;;;;0.50;0.50;;;16.00;99.90;;;;;;5135754;27;20458;-78
2022/11/26 09:27:32;;;;;;;1.17;0.60;;;15.80;99.90;;;;;;5135696;27;20565;-79
2022/11/26 09:29:59;;;;;;;0.70;0.70;;;15.50;99.90;;;;;;5135745;27;20457;-79
2022/11/26 09:32:26;;;;;;;0.73;0.60;;;15.30;99.90;;;;;;5135725;27;20439;-79
2022/11/26 09:34:52;;;;;;;1.00;0.53;;;15.10;99.90;;;;;;5135626;27;20475;-78
2022/11/26 09:37:20;;;;;;;0.53;0.50;;;14.80;99.90;;;;;;5135744;27;20439;-78
2022/11/26 09:39:48;;;;;;;0.60;0.53;;;14.70;99.90;;;;;;5135778;27;20443;-79
2022/11/26 09:42:26;;;;;;;0.40;0.40;;;15.20;99.90;;;;;;5135413;27;20451;-79
2022/11/26 09:45:02;;;;;;;2.40;1.00;;;16.10;99.90;;;;;;5135101;27;20850;-78
2022/11/26 09:47:35;;;;;;;0.50;0.40;;;17.10;99.90;;;;;;5135373;27;20494;-79
2022/11/26 09:50:12;;;;;;;0.50;0.50;;;18.00;99.90;;;;;;5135078;27;20435;-78
2022/11/26 09:52:44;;;;;;;1.93;0.70;;;18.70;99.90;;;;;;5136166;27;20771;-79
2022/11/26 09:55:16;;;;;;;3.00;0.53;;;19.00;99.90;;;;;;5135252;27;20832;-78
2022/11/26 09:57:46;;;;;;;0.80;0.50;;;18.70;99.90;;;;;;5134924;27;20898;-78
2022/11/26 10:00:23;;;;;;;2.00;0.40;;;18.40;99.90;;;;;;5135176;27;20446;-78
2022/11/26 10:02:56;;;;;;;4.73;0.63;;;17.50;99.90;;;;;;5135202;27;20802;-78
2022/11/26 10:05:32;;;;;;;2.23;0.90;;;16.50;99.90;;;;;;5135067;27;20458;-78
2022/11/26 10:08:07;;;;;;;1.03;0.50;;;15.20;99.90;;;;;;5135000;27;20466;-78
2022/11/26 10:10:42;;;;;;;0.50;0.50;;;14.20;99.90;;;;;;5135024;27;20426;-78
2022/11/26 10:13:20;;;;;;;0.93;0.93;;;13.30;99.90;;;;;;5134950;27;20444;-78
2022/11/26 10:15:58;;;;;;;0.40;0.40;;;12.60;99.90;;;;;;5134875;27;20467;-78
2022/11/26 10:18:35;;;;;;;0.93;0.87;;;12.10;99.90;;;;;;5134895;27;20453;-78
2022/11/26 10:21:19;;;;;;;4.00;0.40;;;11.70;99.90;;;;;;5134403;27;20482;-78
2022/11/26 10:23:51;;;;;;;0.40;0.40;;;11.30;99.90;;;;;;5133296;27;20968;-78
2022/11/26 10:26:23;;;;;;;3.03;0.50;;;11.10;99.90;;;;;;5134810;27;20423;-78
2022/11/26 10:28:55;;;;;;;0.63;0.50;;;10.90;99.90;;;;;;5134645;27;20471;-78
2022/11/26 10:31:25;;;;;;;1.03;0.50;;;10.80;99.90;;;;;;5134737;27;20434;-78
2022/11/26 10:33:55;;;;;;;0.93;0.60;;;10.80;99.90;;;;;;5134223;27;20463;-78
2022/11/26 10:36:26;;;;;;;1.00;0.60;;;10.70;99.90;;;;;;5134657;27;20514;-78
2022/11/26 10:38:55;;;;;;;0.60;0.50;;;10.70;99.90;;;;;;5134251;27;20764;-78
2022/11/26 10:41:25;;;;;;;0.50;0.43;;;10.70;99.90;;;;;;5134555;27;20451;-78
2022/11/26 10:43:51;;;;;;;1.10;0.70;;;10.70;99.90;;;;;;5134387;27;20557;-78
2022/11/26 10:46:33;;;;;;;1.50;0.53;;;10.70;99.90;;;;;;5134489;27;20443;-78
2022/11/26 10:49:22;;;;;;;0.93;0.60;;;10.80;99.90;;;;;;5134055;27;20470;-78
2022/11/26 10:51:51;;;;;;;0.80;0.40;;;10.70;99.90;;;;;;5133780;27;20432;-78
2022/11/26 10:54:34;;;;;;;0.60;0.60;;;10.70;99.90;;;;;;5134002;27;20830;-78
2022/11/26 10:57:13;;;;;;;1.07;0.97;;;10.60;99.90;;;;;;5134079;27;20427;-78
2022/11/26 10:59:45;;;;;;;0.80;0.60;;;10.60;99.90;;;;;;5134385;27;20423;-78
2022/11/26 11:02:30;;;;;;;0.70;0.70;;;10.50;99.90;;;;;;5134374;27;20431;-78
2022/11/26 11:04:58;;;;;;;2.40;0.40;;;10.30;99.90;;;;;;5134288;27;20469;-78
2022/11/26 11:07:41;;;;;;;0.40;0.40;;;10.30;99.90;;;;;;5134154;27;20443;-78
2022/11/26 11:10:17;;;;;;;1.37;0.57;;;10.20;99.90;;;;;;5134271;27;20480;-78
2022/11/26 11:12:48;;;;;;;0.43;0.43;;;10.10;99.90;;;;;;5134241;27;20423;-78
2022/11/26 11:15:21;;;;;;;0.40;0.30;;;10.10;99.90;;;;;;5134134;27;20474;-78
2022/11/26 11:17:55;;;;;;;0.77;0.40;;;10.00;99.90;;;;;;5134226;27;20427;-78
2022/11/26 11:20:41;;;;;;;0.70;0.60;;;9.90;99.90;;;;;;5133733;27;21022;-78
2022/11/26 11:23:20;;;;;;;4.13;0.73;;;9.70;99.90;;;;;;5134136;27;20427;-78
2022/11/26 11:25:58;;;;;;;0.90;0.50;;;9.50;99.90;;;;;;5134095;27;20478;-78
2022/11/26 11:28:27;;;;;;;1.53;0.63;;;9.50;99.90;;;;;;5134006;27;20535;-78
2022/11/26 11:31:01;;;;;;;0.80;0.67;;;9.40;99.90;;;;;;5134025;27;20433;-78
2022/11/26 11:33:29;;;;;;;0.37;0.33;;;9.40;99.90;;;;;;5133731;27;20906;-78
2022/11/26 11:36:01;;;;;;;0.40;0.40;;;9.30;99.90;;;;;;5133966;27;20450;-78
2022/11/26 11:38:31;;;;;;;3.30;1.10;;;9.30;99.90;;;;;;5134450;27;20469;-78
2022/11/26 11:41:03;;;;;;;0.40;0.40;;;9.30;99.90;;;;;;5133971;27;20446;-77
2022/11/26 11:43:36;;;;;;;1.13;0.60;;;9.40;99.90;;;;;;5133936;27;20495;-78
2022/11/26 11:46:18;;;;;;;7.37;1.77;;;9.40;99.90;;;;;;5133638;27;20894;-78
2022/11/26 11:48:54;;;;;;;0.70;0.40;;;9.40;99.90;;;;;;5133496;27;20854;-78
2022/11/26 11:51:30;;;;;;;0.70;0.40;;;9.40;99.90;;;;;;5133941;27;20453;-78
2022/11/26 11:54:05;;;;;;;1.00;0.80;;;9.40;99.90;;;;;;5133840;27;20469;-78
2022/11/26 11:56:39;;;;;;;4.40;1.43;;;9.30;99.90;;;;;;5133864;27;20459;-78
2022/11/26 11:59:35;;;;;;;0.50;0.40;;;9.20;99.90;;;;;;5133862;27;20423;-78
2022/11/26 12:02:20;;;;;;;1.50;1.50;;;9.20;99.90;;;;;;5133761;27;19972;-78
2022/11/26 12:05:05;;;;;;;1.07;0.40;;;9.20;99.90;;;;;;5136745;27;20969;-78
2022/11/26 12:07:37;;;;;;;0.50;0.30;;;9.10;99.90;;;;;;5137450;27;20426;-78
2022/11/26 12:10:12;;;;;;;0.77;0.77;;;9.20;99.90;;;;;;5137420;27;20502;-78
2022/11/26 12:12:46;;;;;;;0.80;0.63;;;9.20;99.90;;;;;;5137406;27;20804;-78
2022/11/26 12:15:22;;;;;;;0.80;0.30;;;9.30;99.90;;;;;;5136993;27;20554;-78
2022/11/26 12:17:54;;;;;;;0.50;0.43;;;9.40;99.90;;;;;;5137647;27;20445;-77
2022/11/26 12:20:27;;;;;;;1.17;0.70;;;9.50;99.90;;;;;;5137285;27;20482;-77
2022/11/26 12:23:00;;;;;;;0.40;0.40;;;9.50;99.90;;;;;;5137524;27;20914;-77
2022/11/26 12:25:31;;;;;;;1.03;0.33;;;9.50;99.90;;;;;;5137017;27;20999;-78
2022/11/26 12:28:05;;;;;;;0.30;0.30;;;9.60;99.90;;;;;;5136975;27;20445;-78
2022/11/26 12:30:43;;;;;;;0.77;0.67;;;9.60;99.90;;;;;;5136668;27;20433;-78
2022/11/26 12:33:15;;;;;;;0.30;0.30;;;9.70;99.90;;;;;;5136947;27;20434;-78
2022/11/26 12:35:46;;;;;;;0.40;0.30;;;9.70;99.90;;;;;;5136544;27;20494;-78
2022/11/26 12:38:17;;;;;;;0.70;0.40;;;9.60;99.90;;;;;;5136832;27;20488;-78
2022/11/26 12:40:49;;;;;;;0.30;0.30;;;9.50;99.90;;;;;;5137037;27;20431;-78
2022/11/26 12:43:21;;;;;;;0.30;0.30;;;9.40;99.90;;;;;;5136746;27;20431;-78
2022/11/26 12:45:53;;;;;;;0.50;0.40;;;9.30;99.90;;;;;;5136379;27;20988;-78
2022/11/26 12:48:36;;;;;;;0.40;0.30;;;9.10;99.90;;;;;;5136561;27;20470;-78
2022/11/26 12:51:17;;;;;;;0.47;0.47;;;9.00;99.90;;;;;;5136572;27;20431;-78
2022/11/26 12:53:49;;;;;;;0.40;0.40;;;9.00;99.90;;;;;;5136140;27;20426;-78
2022/11/26 12:56:21;;;;;;;0.40;0.33;;;8.90;99.90;;;;;;5136502;27;20427;-77
2022/11/26 12:58:58;;;;;;;0.40;0.30;;;8.90;99.90;;;;;;5136450;27;20427;-78
2022/11/26 13:01:27;;;;;;;0.50;0.30;;;8.70;99.90;;;;;;5136398;27;20431;-77
2022/11/26 13:03:55;;;;;;;4.20;0.40;;;8.60;99.90;;;;;;5136150;27;20462;-78
2022/11/26 13:06:34;;;;;;;1.10;0.47;;;8.60;99.90;;;;;;5136248;27;20449;-78
2022/11/26 13:09:13;;;;;;;0.30;0.30;;;8.50;99.90;;;;;;5136202;27;20516;-78